createdAt,value
2023-03-22T00:00:15.575Z,3.13
2023-03-22T00:01:19.938Z,3.15
2023-03-22T00:02:23.218Z,3.14
2023-03-22T00:03:25.581Z,3.15
2023-03-22T00:04:28.018Z,3.15
2023-03-22T00:05:33.386Z,3.16
2023-03-22T00:06:35.669Z,3.16
2023-03-22T00:07:38.040Z,3.15
2023-03-22T00:08:40.050Z,3.14
2023-03-22T00:09:42.220Z,3.13
2023-03-22T00:10:44.213Z,3.12
2023-03-22T00:11:46.412Z,3.11
2023-03-22T00:12:48.449Z,3.10
2023-03-22T00:13:52.751Z,3.11
2023-03-22T00:14:55.314Z,3.09
2023-03-22T00:15:57.885Z,3.11
2023-03-22T00:17:00.103Z,3.11
2023-03-22T00:18:05.874Z,3.10
2023-03-22T00:19:07.890Z,3.11
2023-03-22T00:20:11.562Z,3.08
2023-03-22T00:21:15.889Z,3.08
2023-03-22T00:22:18.028Z,3.08
2023-03-22T00:23:20.549Z,3.07
2023-03-22T00:24:22.548Z,3.08
2023-03-22T00:25:24.436Z,3.08
2023-03-22T00:26:26.429Z,3.07
2023-03-22T00:27:28.480Z,3.06
2023-03-22T00:28:30.824Z,3.05
2023-03-22T00:29:32.825Z,3.03
2023-03-22T00:30:35.511Z,3.02
2023-03-22T00:31:37.552Z,2.98
2023-03-22T00:32:39.664Z,2.97
2023-03-22T00:33:41.838Z,2.95
2023-03-22T00:34:44.529Z,2.93
2023-03-22T00:35:55.016Z,2.90
2023-03-22T00:36:57.087Z,2.88
2023-03-22T00:38:06.387Z,2.84
2023-03-22T00:39:08.904Z,2.82
2023-03-22T00:40:14.696Z,2.79
2023-03-22T00:41:20.617Z,2.77
2023-03-22T00:42:22.692Z,2.73
2023-03-22T00:43:24.811Z,2.71
2023-03-22T00:44:27.175Z,2.69
2023-03-22T00:45:29.281Z,2.67
2023-03-22T00:46:31.520Z,2.64
2023-03-22T00:47:33.878Z,2.62
2023-03-22T00:48:36.159Z,2.58
2023-03-22T00:49:38.150Z,2.56
2023-03-22T00:50:41.492Z,2.53
2023-03-22T00:51:43.493Z,2.50
2023-03-22T00:52:45.508Z,2.47
2023-03-22T00:53:51.136Z,2.46
2023-03-22T00:54:53.425Z,2.44
2023-03-22T00:55:57.364Z,2.43
2023-03-22T00:56:59.408Z,2.41
2023-03-22T00:58:02.011Z,2.39
2023-03-22T00:59:04.639Z,2.39
2023-03-22T01:00:13.985Z,2.37
2023-03-22T01:01:16.237Z,2.36
2023-03-22T01:02:18.221Z,2.34
2023-03-22T01:03:22.231Z,2.32
2023-03-22T01:04:26.492Z,2.30
2023-03-22T01:05:28.594Z,2.29
2023-03-22T01:06:30.774Z,2.29
2023-03-22T01:07:33.546Z,2.26
2023-03-22T01:08:39.324Z,2.25
2023-03-22T01:11:04.668Z,2.23
2023-03-22T01:12:07.168Z,2.23
2023-03-22T01:13:09.998Z,2.22
2023-03-22T01:14:14.073Z,2.19
2023-03-22T01:15:15.935Z,2.21
2023-03-22T01:16:19.219Z,2.16
2023-03-22T01:17:21.431Z,2.12
2023-03-22T01:18:23.978Z,2.11
2023-03-22T01:19:27.594Z,2.10
2023-03-22T01:20:30.447Z,2.08
2023-03-22T01:21:32.683Z,2.05
2023-03-22T01:22:34.743Z,2.04
2023-03-22T01:23:37.741Z,2.05
2023-03-22T01:24:39.662Z,2.03
2023-03-22T01:25:41.739Z,2.02
2023-03-22T01:26:43.659Z,1.99
2023-03-22T01:27:46.190Z,1.99
2023-03-22T01:28:48.211Z,1.97
2023-03-22T01:29:50.971Z,1.94
2023-03-22T01:30:53.158Z,1.93
2023-03-22T01:31:55.222Z,1.92
2023-03-22T01:32:57.444Z,1.90
2023-03-22T01:33:59.415Z,1.89
2023-03-22T01:35:01.494Z,1.88
2023-03-22T01:36:04.198Z,1.88
2023-03-22T01:37:06.421Z,1.86
2023-03-22T01:38:08.510Z,1.85
2023-03-22T01:39:10.849Z,1.85
2023-03-22T01:40:14.613Z,1.83
2023-03-22T01:41:17.816Z,1.81
2023-03-22T01:42:22.194Z,1.81
2023-03-22T01:43:24.222Z,1.79
2023-03-22T01:44:31.055Z,1.78
2023-03-22T01:45:37.012Z,1.76
2023-03-22T01:46:41.433Z,1.75
2023-03-22T01:47:54.275Z,1.75
2023-03-22T01:48:56.518Z,1.74
2023-03-22T01:49:58.627Z,1.73
2023-03-22T01:51:11.257Z,1.72
2023-03-22T01:52:15.704Z,1.71
2023-03-22T01:53:19.744Z,1.70
2023-03-22T01:54:47.382Z,1.70
2023-03-22T01:55:50.004Z,1.67
2023-03-22T01:56:52.119Z,1.67
2023-03-22T01:57:55.626Z,1.66
2023-03-22T01:58:57.787Z,1.65
2023-03-22T02:00:00.816Z,1.65
2023-03-22T02:01:04.447Z,1.64
2023-03-22T02:02:07.184Z,1.64
2023-03-22T02:03:10.388Z,1.63
2023-03-22T02:04:16.885Z,1.63
2023-03-22T02:05:19.962Z,1.62
2023-03-22T02:06:22.181Z,1.60
2023-03-22T02:07:27.292Z,1.60
2023-03-22T02:08:31.039Z,1.60
2023-03-22T02:09:34.414Z,1.60
2023-03-22T02:10:36.666Z,1.58
2023-03-22T02:11:42.224Z,1.59
2023-03-22T02:12:54.259Z,1.58
2023-03-22T02:14:17.900Z,1.58
2023-03-22T02:15:28.048Z,1.57
2023-03-22T02:16:54.185Z,1.59
2023-03-22T02:18:34.671Z,1.57
2023-03-22T02:19:45.695Z,1.56
2023-03-22T02:20:56.720Z,1.56
2023-03-22T02:22:28.280Z,1.56
2023-03-22T02:24:07.436Z,1.53
2023-03-22T02:25:24.553Z,1.53
2023-03-22T02:26:47.174Z,1.54
2023-03-22T02:28:14.840Z,1.51
2023-03-22T02:29:46.143Z,1.51
2023-03-22T02:30:51.446Z,1.47
2023-03-22T02:32:36.886Z,1.47
2023-03-22T02:34:00.086Z,1.46
2023-03-22T02:35:27.991Z,1.44
2023-03-22T02:37:23.777Z,1.44
2023-03-22T02:38:47.853Z,1.42
2023-03-22T02:39:59.711Z,1.42
2023-03-22T02:41:04.729Z,1.41
2023-03-22T02:42:25.168Z,1.42
2023-03-22T02:44:02.047Z,1.42
2023-03-22T02:45:41.747Z,1.41
2023-03-22T02:46:48.901Z,1.42
2023-03-22T02:48:03.042Z,1.42
2023-03-22T02:49:34.336Z,1.44
2023-03-22T02:50:56.901Z,1.43
2023-03-22T02:52:01.714Z,1.43
2023-03-22T02:53:10.731Z,1.44
2023-03-22T02:54:44.900Z,1.47
2023-03-22T02:56:03.813Z,1.47
2023-03-22T02:57:14.198Z,1.46
2023-03-22T02:58:30.221Z,1.47
2023-03-22T02:59:37.700Z,1.48
2023-03-22T03:00:42.045Z,1.49
2023-03-22T03:01:54.834Z,1.50
2023-03-22T03:03:02.171Z,1.51
2023-03-22T03:04:09.757Z,1.52
2023-03-22T03:05:13.720Z,1.54
2023-03-22T03:06:20.849Z,1.56
2023-03-22T03:07:27.504Z,1.55
2023-03-22T03:08:31.120Z,1.56
2023-03-22T03:09:33.870Z,1.58
2023-03-22T03:10:36.471Z,1.61
2023-03-22T03:11:38.467Z,1.64
2023-03-22T03:12:40.609Z,1.66
2023-03-22T03:13:42.691Z,1.69
2023-03-22T03:14:45.016Z,1.72
2023-03-22T03:15:55.462Z,1.76
2023-03-22T03:17:25.100Z,1.78
2023-03-22T03:19:01.698Z,1.83
2023-03-22T03:20:22.060Z,1.81
2023-03-22T03:21:45.571Z,1.82
2023-03-22T03:23:07.428Z,1.82
2023-03-22T03:24:23.636Z,1.84
2023-03-22T03:25:51.786Z,1.87
2023-03-22T03:26:56.337Z,1.89
2023-03-22T03:28:10.251Z,1.90
2023-03-22T03:29:15.698Z,1.95
2023-03-22T03:30:31.832Z,1.98
2023-03-22T03:31:39.939Z,2.05
2023-03-22T03:32:52.939Z,2.09
2023-03-22T03:34:05.969Z,2.12
2023-03-22T03:35:22.757Z,2.19
2023-03-22T03:36:25.987Z,2.33
2023-03-22T03:37:35.433Z,2.40
2023-03-22T03:38:42.733Z,2.47
2023-03-22T03:40:09.761Z,2.56
2023-03-22T03:41:18.941Z,2.81
2023-03-22T03:42:22.825Z,3.04
2023-03-22T03:43:25.830Z,3.30
2023-03-22T03:44:30.657Z,3.55
2023-03-22T03:45:35.025Z,3.75
2023-03-22T03:46:37.405Z,3.97
2023-03-22T03:47:39.778Z,4.18
2023-03-22T03:48:47.176Z,4.35
2023-03-22T03:49:50.446Z,4.50
2023-03-22T03:50:54.426Z,4.58
2023-03-22T03:51:56.786Z,4.67
2023-03-22T03:52:59.262Z,4.79
2023-03-22T03:54:01.278Z,4.92
2023-03-22T03:55:03.372Z,5.03
2023-03-22T03:56:05.987Z,5.16
2023-03-22T03:57:07.953Z,5.27
2023-03-22T03:58:10.374Z,5.39
2023-03-22T03:59:12.541Z,5.44
2023-03-22T04:00:15.455Z,5.51
2023-03-22T04:01:19.875Z,5.60
2023-03-22T04:02:21.867Z,5.70
2023-03-22T04:03:23.836Z,5.76
2023-03-22T04:04:29.024Z,5.85
2023-03-22T04:05:31.150Z,5.94
2023-03-22T04:06:34.903Z,5.98
2023-03-22T04:07:37.582Z,6.04
2023-03-22T04:08:39.655Z,6.10
2023-03-22T04:09:41.619Z,6.13
2023-03-22T04:10:44.392Z,6.21
2023-03-22T04:11:46.791Z,6.21
2023-03-22T04:12:49.030Z,6.21
2023-03-22T04:13:51.076Z,6.24
2023-03-22T04:14:53.403Z,6.33
2023-03-22T04:15:57.672Z,6.44
2023-03-22T04:16:59.767Z,6.55
2023-03-22T04:18:01.919Z,6.52
2023-03-22T04:19:04.010Z,6.56
2023-03-22T04:20:11.282Z,6.65
2023-03-22T04:21:13.624Z,6.65
2023-03-22T04:22:18.623Z,6.70
2023-03-22T04:23:23.263Z,6.72
2023-03-22T04:24:25.419Z,6.73
2023-03-22T04:25:30.391Z,6.70
2023-03-22T04:26:33.609Z,6.74
2023-03-22T04:27:35.717Z,6.74
2023-03-22T04:28:37.705Z,6.72
2023-03-22T04:29:39.756Z,6.78
2023-03-22T04:30:45.861Z,6.81
2023-03-22T04:31:48.262Z,6.84
2023-03-22T04:32:50.385Z,6.82
2023-03-22T04:33:56.728Z,6.79
2023-03-22T04:34:58.791Z,6.84
2023-03-22T04:36:02.539Z,6.90
2023-03-22T04:37:06.279Z,7.00
2023-03-22T04:38:09.892Z,7.04
2023-03-22T04:39:12.667Z,7.13
2023-03-22T04:40:21.078Z,7.15
2023-03-22T04:41:23.726Z,7.22
2023-03-22T04:42:26.760Z,7.27
2023-03-22T04:43:28.796Z,7.26
2023-03-22T04:44:31.108Z,7.29
2023-03-22T04:45:35.127Z,7.34
2023-03-22T04:46:37.415Z,7.66
2023-03-22T04:47:40.014Z,7.48
2023-03-22T04:48:43.071Z,7.48
2023-03-22T04:49:45.118Z,7.45
2023-03-22T04:50:47.069Z,7.47
2023-03-22T04:51:49.089Z,7.44
2023-03-22T04:52:51.228Z,7.36
2023-03-22T04:53:54.132Z,7.36
2023-03-22T04:54:56.148Z,7.31
2023-03-22T04:55:58.404Z,7.27
2023-03-22T04:57:01.276Z,7.30
2023-03-22T04:58:03.381Z,7.34
2023-03-22T04:59:05.427Z,7.37
2023-03-22T05:00:11.073Z,7.42
2023-03-22T05:01:15.062Z,7.51
2023-03-22T05:02:17.385Z,7.91
2023-03-22T05:03:21.764Z,7.81
2023-03-22T05:04:23.958Z,7.77
2023-03-22T05:05:25.997Z,7.78
2023-03-22T05:06:28.173Z,7.77
2023-03-22T05:07:30.428Z,7.76
2023-03-22T05:08:33.340Z,7.77
2023-03-22T05:09:35.552Z,7.67
2023-03-22T05:10:41.092Z,7.69
2023-03-22T05:11:43.459Z,7.72
2023-03-22T05:12:45.672Z,7.76
2023-03-22T05:13:47.588Z,7.75
2023-03-22T05:14:49.625Z,7.70
2023-03-22T05:15:52.011Z,7.61
2023-03-22T05:16:54.500Z,7.53
2023-03-22T05:17:56.534Z,7.48
2023-03-22T05:18:58.578Z,7.38
2023-03-22T05:20:08.441Z,7.42
2023-03-22T05:21:15.762Z,7.59
2023-03-22T05:22:19.450Z,7.67
2023-03-22T05:23:22.462Z,7.73
2023-03-22T05:24:24.623Z,7.76
2023-03-22T05:25:26.779Z,7.78
2023-03-22T05:26:28.958Z,7.88
2023-03-22T05:27:35.219Z,7.97
2023-03-22T05:28:38.820Z,8.01
2023-03-22T05:29:45.235Z,8.10
2023-03-22T05:30:49.055Z,7.99
2023-03-22T05:31:51.246Z,7.79
2023-03-22T05:33:03.439Z,7.52
2023-03-22T05:34:06.175Z,7.30
2023-03-22T05:35:08.624Z,7.06
2023-03-22T05:36:13.980Z,6.84
2023-03-22T05:37:17.019Z,6.80
2023-03-22T05:38:19.134Z,6.75
2023-03-22T05:39:21.244Z,6.71
2023-03-22T05:40:23.939Z,6.63
2023-03-22T05:41:26.163Z,6.53
2023-03-22T05:42:28.371Z,6.44
2023-03-22T05:43:30.468Z,6.41
2023-03-22T05:44:32.548Z,6.39
2023-03-22T05:45:37.046Z,6.39
2023-03-22T05:46:39.087Z,6.35
2023-03-22T05:47:41.205Z,6.32
2023-03-22T05:48:43.490Z,6.29
2023-03-22T05:49:45.879Z,6.27
2023-03-22T05:50:47.946Z,6.24
2023-03-22T05:51:50.736Z,6.18
2023-03-22T05:52:52.930Z,6.16
2023-03-22T05:53:55.414Z,6.20
2023-03-22T05:54:57.490Z,6.15
2023-03-22T05:56:00.909Z,6.12
2023-03-22T05:57:03.152Z,6.08
2023-03-22T05:58:05.562Z,6.09
2023-03-22T05:59:07.826Z,6.08
2023-03-22T06:00:13.585Z,6.03
2023-03-22T06:01:20.624Z,6.01
2023-03-22T06:02:23.068Z,5.96
2023-03-22T06:03:25.143Z,5.92
2023-03-22T06:04:27.354Z,5.93
2023-03-22T06:05:31.991Z,5.90
2023-03-22T06:06:33.966Z,5.88
2023-03-22T06:07:36.059Z,5.88
2023-03-22T06:08:39.694Z,5.91
2023-03-22T06:09:41.865Z,5.94
2023-03-22T06:10:43.776Z,5.98
2023-03-22T06:11:45.832Z,5.98
2023-03-22T06:12:47.940Z,6.02
2023-03-22T06:13:50.086Z,5.99
2023-03-22T06:14:52.484Z,6.01
2023-03-22T06:15:54.520Z,6.00
2023-03-22T06:16:56.680Z,6.00
2023-03-22T06:17:58.706Z,6.02
2023-03-22T06:19:00.786Z,6.04
2023-03-22T06:20:09.492Z,6.07
2023-03-22T06:21:11.444Z,6.09
2023-03-22T06:22:13.887Z,6.11
2023-03-22T06:23:16.026Z,6.08
2023-03-22T06:24:18.107Z,6.09
2023-03-22T06:25:20.158Z,6.08
2023-03-22T06:26:22.194Z,6.09
2023-03-22T06:27:24.216Z,6.07
2023-03-22T06:28:30.016Z,6.03
2023-03-22T06:29:32.069Z,5.99
2023-03-22T06:30:34.106Z,6.01
2023-03-22T06:31:36.411Z,5.99
2023-03-22T06:32:38.480Z,6.00
2023-03-22T06:33:40.458Z,6.01
2023-03-22T06:34:42.739Z,6.04
2023-03-22T06:35:44.920Z,6.07
2023-03-22T06:36:46.992Z,6.11
2023-03-22T06:37:49.126Z,6.10
2023-03-22T06:38:51.115Z,6.04
2023-03-22T06:39:53.527Z,6.02
2023-03-22T06:40:55.428Z,6.06
2023-03-22T06:41:57.457Z,6.10
2023-03-22T06:43:02.284Z,6.14
2023-03-22T06:44:06.380Z,6.19
2023-03-22T06:45:12.699Z,6.18
2023-03-22T06:46:14.815Z,6.20
2023-03-22T06:47:16.983Z,6.18
2023-03-22T06:48:19.286Z,6.19
2023-03-22T06:49:22.134Z,6.18
2023-03-22T06:50:24.091Z,6.17
2023-03-22T06:51:26.275Z,6.12
2023-03-22T06:52:28.438Z,6.07
2023-03-22T06:53:30.825Z,6.02
2023-03-22T06:54:32.949Z,6.00
2023-03-22T06:55:35.291Z,5.96
2023-03-22T06:56:37.416Z,5.93
2023-03-22T06:57:39.445Z,5.91
2023-03-22T06:58:41.889Z,5.89
2023-03-22T06:59:43.934Z,5.87
2023-03-22T07:00:46.296Z,5.85
2023-03-22T07:01:48.766Z,5.82
2023-03-22T07:02:52.769Z,5.70
2023-03-22T07:03:54.984Z,5.77
2023-03-22T07:04:56.915Z,5.69
2023-03-22T07:06:08.509Z,5.63
2023-03-22T07:07:10.534Z,5.51
2023-03-22T07:08:12.713Z,5.43
2023-03-22T07:09:14.686Z,5.43
2023-03-22T07:10:16.918Z,5.38
2023-03-22T07:11:19.014Z,5.34
2023-03-22T07:12:21.182Z,5.26
2023-03-22T07:13:23.822Z,5.13
2023-03-22T07:14:26.150Z,5.04
2023-03-22T07:15:28.389Z,5.00
2023-03-22T07:16:30.524Z,4.99
2023-03-22T07:17:32.927Z,5.00
2023-03-22T07:18:34.946Z,5.00
2023-03-22T07:19:37.069Z,5.02
2023-03-22T07:20:41.819Z,4.97
2023-03-22T07:21:44.332Z,4.92
2023-03-22T07:22:46.727Z,4.91
2023-03-22T07:23:48.763Z,4.91
2023-03-22T07:24:57.190Z,4.87
2023-03-22T07:26:01.153Z,4.80
2023-03-22T07:27:03.480Z,4.80
2023-03-22T07:56:04.213Z,4.13
2023-03-22T07:57:07.138Z,4.27
2023-03-22T07:58:09.571Z,4.23
2023-03-22T07:59:11.804Z,4.21
2023-03-22T08:00:14.968Z,4.31
2023-03-22T08:01:17.245Z,4.21
2023-03-22T08:02:19.283Z,4.26
2023-03-22T08:03:22.488Z,4.25
2023-03-22T08:04:25.319Z,4.20
2023-03-22T08:05:27.515Z,4.20
2023-03-22T08:06:30.085Z,4.19
2023-03-22T08:07:32.807Z,4.14
2023-03-22T08:08:37.252Z,4.14
2023-03-22T08:09:39.476Z,4.10
2023-03-22T08:10:41.623Z,4.07
2023-03-22T08:11:43.928Z,4.09
2023-03-22T08:12:46.008Z,4.04
2023-03-22T08:13:48.148Z,4.04
2023-03-22T08:14:51.414Z,4.05
2023-03-22T08:15:53.530Z,4.05
2023-03-22T08:16:55.814Z,4.06
2023-03-22T08:17:58.350Z,4.10
2023-03-22T08:19:00.625Z,4.19
2023-03-22T08:20:08.751Z,4.16
2023-03-22T08:21:11.300Z,4.18
2023-03-22T08:22:13.858Z,4.21
2023-03-22T08:23:16.514Z,4.22
2023-03-22T08:24:18.654Z,4.22
2023-03-22T08:25:21.820Z,4.29
2023-03-22T08:26:24.497Z,4.31
2023-03-22T08:27:27.528Z,4.37
2023-03-22T08:28:29.658Z,4.41
2023-03-22T08:29:31.818Z,4.44
2023-03-22T08:30:34.090Z,4.49
2023-03-22T08:31:36.062Z,4.51
2023-03-22T08:32:38.325Z,4.60
2023-03-22T08:33:40.531Z,4.57
2023-03-22T08:34:43.914Z,4.49
2023-03-22T08:35:46.781Z,4.50
2023-03-22T08:36:48.979Z,4.54
2023-03-22T08:37:57.310Z,4.52
2023-03-22T08:38:59.632Z,4.57
2023-03-22T08:40:01.745Z,4.60
2023-03-22T08:41:04.410Z,4.69
2023-03-22T08:42:06.435Z,4.74
2023-03-22T08:43:08.839Z,4.76
2023-03-22T08:44:11.359Z,4.88
2023-03-22T08:45:13.565Z,5.01
2023-03-22T08:46:17.366Z,5.08
2023-03-22T08:47:19.484Z,5.10
2023-03-22T08:48:21.598Z,5.07
2023-03-22T08:49:23.862Z,5.07
2023-03-22T08:50:26.116Z,5.09
2023-03-22T08:51:29.545Z,5.04
2023-03-22T08:52:31.615Z,4.87
2023-03-22T08:53:33.851Z,4.87
2023-03-22T08:54:36.339Z,4.80
2023-03-22T08:55:40.202Z,4.89
2023-03-22T08:56:42.715Z,4.95
2023-03-22T08:57:50.587Z,4.92
2023-03-22T08:58:52.597Z,4.87
2023-03-22T08:59:54.879Z,4.87
2023-03-22T09:00:56.895Z,4.88
2023-03-22T09:01:59.347Z,4.86
2023-03-22T09:03:01.497Z,4.92
2023-03-22T09:04:04.659Z,4.93
2023-03-22T09:05:07.123Z,4.90
2023-03-22T09:06:10.774Z,4.84
2023-03-22T09:07:12.955Z,4.88
2023-03-22T09:08:19.130Z,4.93
2023-03-22T09:09:21.794Z,4.98
2023-03-22T09:10:24.003Z,5.09
2023-03-22T09:11:26.293Z,5.11
2023-03-22T09:12:30.083Z,5.05
2023-03-22T09:13:32.398Z,5.10
2023-03-22T09:14:34.567Z,5.11
2023-03-22T09:15:36.875Z,5.10
2023-03-22T09:16:39.153Z,5.06
2023-03-22T09:17:42.108Z,5.08
2023-03-22T09:18:44.930Z,5.15
2023-03-22T09:19:48.118Z,5.07
2023-03-22T09:20:50.547Z,5.11
2023-03-22T09:21:52.802Z,5.22
2023-03-22T09:22:54.984Z,5.21
2023-03-22T09:23:57.451Z,5.23
2023-03-22T09:24:59.622Z,5.17
2023-03-22T09:26:04.044Z,5.06
2023-03-22T09:27:06.123Z,4.97
2023-03-22T09:28:08.215Z,5.01
2023-03-22T09:29:11.117Z,4.97
2023-03-22T09:30:13.564Z,4.94
2023-03-22T09:31:18.508Z,4.95
2023-03-22T09:32:22.357Z,4.93
2023-03-22T09:33:24.566Z,5.01
2023-03-22T09:34:27.309Z,5.11
2023-03-22T09:35:29.402Z,5.10
2023-03-22T09:36:32.602Z,5.13
2023-03-22T09:37:34.784Z,5.15
2023-03-22T09:38:36.807Z,5.20
2023-03-22T09:39:40.411Z,5.15
2023-03-22T09:41:01.021Z,5.22
2023-03-22T09:42:06.475Z,5.23
2023-03-22T09:43:12.066Z,5.25
2023-03-22T09:44:35.192Z,5.23
2023-03-22T09:45:44.222Z,5.20
2023-03-22T09:46:49.351Z,5.16
2023-03-22T09:47:55.509Z,5.17
2023-03-22T09:49:00.412Z,5.14
2023-03-22T09:50:12.167Z,5.16
2023-03-22T09:51:21.666Z,5.18
2023-03-22T09:52:23.710Z,5.12
2023-03-22T09:53:28.547Z,5.13
2023-03-22T09:54:42.227Z,5.22
2023-03-22T09:55:47.014Z,5.31
2023-03-22T09:56:59.112Z,5.37
2023-03-22T09:58:07.100Z,5.44
2023-03-22T09:59:19.089Z,5.45
2023-03-22T10:00:33.644Z,5.49
2023-03-22T10:02:00.645Z,5.49
2023-03-22T10:03:20.256Z,5.45
2023-03-22T10:04:50.120Z,5.36
2023-03-22T10:06:05.294Z,5.35
2023-03-22T10:07:39.022Z,5.29
2023-03-22T10:09:07.008Z,5.30
2023-03-22T10:10:12.352Z,5.35
2023-03-22T10:11:46.085Z,5.31
2023-03-22T10:12:58.333Z,5.32
2023-03-22T10:14:13.627Z,5.33
2023-03-22T10:15:21.645Z,5.30
2023-03-22T10:16:33.287Z,5.25
2023-03-22T10:17:37.198Z,5.19
2023-03-22T10:18:45.523Z,5.24
2023-03-22T10:20:01.179Z,5.25
2023-03-22T10:21:06.797Z,5.16
2023-03-22T10:22:16.457Z,5.11
2023-03-22T10:23:24.044Z,5.14
2023-03-22T10:24:33.203Z,5.16
2023-03-22T10:25:41.646Z,5.22
2023-03-22T10:26:47.628Z,5.28
2023-03-22T10:27:51.733Z,5.22
2023-03-22T10:28:57.835Z,5.34
2023-03-22T10:30:02.225Z,5.29
2023-03-22T10:31:07.034Z,5.26
2023-03-22T10:32:19.074Z,5.22
2023-03-22T10:33:29.488Z,5.34
2023-03-22T10:34:31.547Z,5.46
2023-03-22T10:35:33.844Z,5.40
2023-03-22T10:36:39.054Z,5.46
2023-03-22T10:37:42.897Z,5.53
2023-03-22T10:38:52.517Z,5.60
2023-03-22T10:39:56.905Z,5.63
2023-03-22T10:41:01.132Z,5.65
2023-03-22T10:42:08.327Z,5.60
2023-03-22T10:43:15.994Z,5.58
2023-03-22T10:44:19.852Z,5.63
2023-03-22T10:45:23.694Z,5.55
2023-03-22T10:46:28.649Z,5.46
2023-03-22T10:47:40.807Z,5.51
2023-03-22T10:48:46.850Z,5.56
2023-03-22T10:49:55.345Z,5.58
2023-03-22T10:51:00.025Z,5.53
2023-03-22T10:52:17.782Z,5.48
2023-03-22T10:53:38.742Z,5.56
2023-03-22T10:54:40.805Z,5.55
2023-03-22T10:55:44.521Z,5.61
2023-03-22T10:56:46.604Z,5.62
2023-03-22T10:58:12.458Z,5.72
2023-03-22T10:59:51.895Z,5.76
2023-03-22T11:00:57.278Z,5.64
2023-03-22T11:02:02.044Z,5.64
2023-03-22T11:03:07.320Z,5.66
2023-03-22T11:04:18.420Z,5.70
2023-03-22T11:05:25.130Z,5.72
2023-03-22T11:06:30.363Z,5.78
2023-03-22T11:07:32.393Z,5.90
2023-03-22T11:08:52.717Z,6.00
2023-03-22T11:10:13.458Z,6.13
2023-03-22T11:11:36.849Z,6.15
2023-03-22T11:12:42.560Z,6.16
2023-03-22T11:13:50.897Z,6.24
2023-03-22T11:14:53.097Z,6.18
2023-03-22T11:16:02.534Z,6.18
2023-03-22T11:17:13.225Z,6.21
2023-03-22T11:18:17.096Z,6.25
2023-03-22T11:19:28.536Z,6.33
2023-03-22T11:20:32.366Z,6.39
2023-03-22T11:21:34.617Z,6.39
2023-03-22T11:22:40.508Z,6.38
2023-03-22T11:23:56.702Z,6.37
2023-03-22T11:24:59.685Z,6.35
2023-03-22T11:26:26.640Z,6.36
2023-03-22T11:27:31.665Z,6.33
2023-03-22T11:28:37.763Z,6.36
2023-03-22T11:30:01.617Z,6.36
2023-03-22T11:31:11.229Z,6.35
2023-03-22T11:32:30.379Z,6.35
2023-03-22T11:33:33.837Z,6.39
2023-03-22T11:34:36.790Z,6.47
2023-03-22T11:35:39.773Z,6.46
2023-03-22T11:37:52.882Z,6.31
2023-03-22T11:39:00.470Z,6.38
2023-03-22T11:40:05.425Z,6.26
2023-03-22T11:41:13.567Z,6.24
2023-03-22T11:42:21.180Z,6.30
2023-03-22T11:43:27.832Z,6.30
2023-03-22T11:44:35.112Z,6.28
2023-03-22T11:45:43.217Z,6.30
2023-03-22T11:46:53.092Z,6.33
2023-03-22T11:48:02.371Z,6.25
2023-03-22T11:49:17.093Z,6.24
2023-03-22T11:50:46.173Z,6.29
2023-03-22T11:51:49.146Z,6.22
2023-03-22T11:52:51.454Z,6.11
2023-03-22T11:53:59.623Z,6.09
2023-03-22T11:55:02.134Z,6.01
2023-03-22T11:56:07.820Z,6.01
2023-03-22T11:57:32.429Z,6.03
2023-03-22T11:58:41.184Z,6.07
2023-03-22T12:00:07.343Z,6.14
2023-03-22T12:01:18.540Z,6.04
2023-03-22T12:02:28.792Z,6.01
2023-03-22T12:03:38.920Z,6.15
2023-03-22T12:04:44.500Z,5.98
2023-03-22T12:05:50.065Z,5.99
2023-03-22T12:07:00.015Z,5.92
2023-03-22T12:08:19.631Z,5.93
2023-03-22T12:09:53.468Z,5.91
2023-03-22T12:11:26.148Z,5.97
2023-03-22T12:12:33.610Z,5.90
2023-03-22T12:14:05.485Z,5.90
2023-03-22T12:15:21.297Z,5.98
2023-03-22T12:16:29.692Z,5.96
2023-03-22T12:18:01.909Z,5.98
2023-03-22T12:19:23.880Z,6.00
2023-03-22T12:20:42.435Z,6.03
2023-03-22T12:21:46.538Z,6.03
2023-03-22T12:22:55.387Z,6.03
2023-03-22T12:24:02.636Z,5.99
2023-03-22T12:25:11.342Z,6.01
2023-03-22T12:26:26.615Z,5.93
2023-03-22T12:27:36.134Z,5.94
2023-03-22T12:28:50.026Z,5.88
2023-03-22T12:30:01.551Z,5.85
2023-03-22T12:31:08.274Z,5.82
2023-03-22T12:32:19.589Z,5.83
2023-03-22T12:33:56.742Z,5.87
2023-03-22T12:35:16.078Z,5.91
2023-03-22T12:36:32.275Z,5.91
2023-03-22T12:37:36.271Z,5.80
2023-03-22T12:38:40.933Z,5.85
2023-03-22T12:40:11.476Z,5.76
2023-03-22T12:41:17.269Z,5.76
2023-03-22T12:42:26.121Z,5.67
2023-03-22T12:43:30.965Z,5.68
2023-03-22T12:44:39.618Z,5.65
2023-03-22T12:45:48.009Z,5.64
2023-03-22T12:46:57.086Z,5.69
2023-03-22T12:48:17.529Z,5.72
2023-03-22T12:49:41.682Z,5.68
2023-03-22T12:51:01.143Z,5.70
2023-03-22T12:52:15.877Z,5.69
2023-03-22T12:53:20.393Z,5.66
2023-03-22T12:54:36.040Z,5.60
2023-03-22T12:55:41.334Z,5.61
2023-03-22T12:56:47.337Z,5.62
2023-03-22T12:57:54.854Z,5.57
2023-03-22T12:59:01.491Z,5.49
2023-03-22T13:00:10.640Z,5.52
2023-03-22T13:01:40.205Z,5.50
2023-03-22T13:02:56.226Z,5.48
2023-03-22T13:03:59.745Z,5.49
2023-03-22T13:05:05.338Z,5.51
2023-03-22T13:06:29.994Z,5.57
2023-03-22T13:07:53.572Z,5.46
2023-03-22T13:09:09.036Z,5.43
2023-03-22T13:10:30.340Z,5.41
2023-03-22T13:11:32.410Z,5.40
2023-03-22T13:12:34.968Z,5.39
2023-03-22T13:13:47.222Z,5.42
2023-03-22T13:14:52.249Z,5.40
2023-03-22T13:16:24.838Z,5.43
2023-03-22T13:17:27.677Z,5.40
2023-03-22T13:18:33.556Z,5.42
2023-03-22T13:19:37.744Z,5.42
2023-03-22T13:20:41.363Z,5.38
2023-03-22T13:21:43.631Z,5.33
2023-03-22T13:22:48.647Z,5.29
2023-03-22T13:24:01.444Z,5.24
2023-03-22T13:25:13.292Z,5.19
2023-03-22T13:26:16.436Z,5.20
2023-03-22T13:27:18.281Z,5.24
2023-03-22T13:28:24.763Z,5.34
2023-03-22T13:29:38.355Z,5.30
2023-03-22T13:30:55.041Z,5.27
2023-03-22T13:32:02.202Z,5.23
2023-03-22T13:33:10.584Z,5.18
2023-03-22T13:34:20.658Z,5.26
2023-03-22T13:35:28.778Z,5.26
2023-03-22T13:36:32.278Z,5.25
2023-03-22T13:37:52.394Z,5.26
2023-03-22T13:39:04.900Z,5.22
2023-03-22T13:40:26.554Z,5.22
2023-03-22T13:41:31.376Z,5.23
2023-03-22T13:42:39.075Z,5.17
2023-03-22T13:43:44.385Z,5.15
2023-03-22T13:44:57.355Z,5.16
2023-03-22T13:46:17.865Z,5.17
2023-03-22T13:47:32.098Z,5.11
2023-03-22T13:48:52.736Z,5.10
2023-03-22T13:50:01.364Z,5.10
2023-03-22T13:51:25.767Z,5.11
2023-03-22T13:52:35.950Z,5.07
2023-03-22T13:53:41.675Z,5.03
2023-03-22T13:54:49.774Z,5.05
2023-03-22T13:55:52.017Z,5.06
2023-03-22T13:57:02.329Z,5.04
2023-03-22T13:58:06.121Z,5.03
2023-03-22T13:59:23.233Z,4.97
2023-03-22T14:00:31.505Z,4.94
2023-03-22T14:01:47.628Z,4.93
2023-03-22T14:02:50.847Z,4.92
2023-03-22T14:03:54.060Z,4.90
2023-03-22T14:05:08.296Z,4.91
2023-03-22T14:06:26.318Z,4.90
2023-03-22T14:07:56.627Z,4.88
2023-03-22T14:09:02.936Z,4.87
2023-03-22T14:10:26.459Z,4.87
2023-03-22T14:11:49.753Z,4.83
2023-03-22T14:12:57.717Z,4.84
2023-03-22T14:14:05.413Z,4.82
2023-03-22T14:15:09.226Z,4.79
2023-03-22T14:16:18.669Z,4.76
2023-03-22T14:17:56.431Z,4.73
2023-03-22T14:18:58.852Z,4.67
2023-03-22T14:20:05.076Z,4.67
2023-03-22T14:21:13.661Z,4.66
